createdAt,value
2022-08-16T00:00:41.123Z,0.00
2022-08-16T00:01:40.830Z,0.00
2022-08-16T00:02:40.889Z,0.00
2022-08-16T00:03:40.925Z,0.00
2022-08-16T00:04:40.082Z,0.00
2022-08-16T00:05:48.409Z,0.00
2022-08-16T00:06:41.023Z,0.00
2022-08-16T00:07:41.475Z,0.00
2022-08-16T00:08:39.994Z,0.00
2022-08-16T00:09:43.984Z,0.00
2022-08-16T00:10:43.163Z,0.00
2022-08-16T00:11:39.945Z,0.00
2022-08-16T00:12:40.715Z,0.00
2022-08-16T00:13:41.374Z,0.00
2022-08-16T00:14:39.906Z,0.00
2022-08-16T00:15:51.548Z,0.00
2022-08-16T00:17:05.310Z,0.00
2022-08-16T00:17:56.335Z,0.00
2022-08-16T00:18:40.861Z,0.00
2022-08-16T00:19:41.142Z,0.00
2022-08-16T00:20:39.831Z,0.00
2022-08-16T00:21:39.877Z,0.00
2022-08-16T00:22:40.561Z,0.00
2022-08-16T00:23:40.371Z,0.00
2022-08-16T00:24:40.772Z,0.00
2022-08-16T00:26:35.001Z,0.00
2022-08-16T00:26:44.264Z,0.00
2022-08-16T00:27:40.501Z,0.00
2022-08-16T00:28:39.731Z,0.00
2022-08-16T00:29:42.701Z,0.00
2022-08-16T00:30:42.710Z,0.00
2022-08-16T00:31:59.820Z,0.00
2022-08-16T00:32:42.195Z,0.00
2022-08-16T00:33:39.655Z,0.00
2022-08-16T00:34:44.526Z,0.00
2022-08-16T00:35:40.627Z,0.00
2022-08-16T00:36:39.607Z,0.00
2022-08-16T00:37:56.366Z,0.00
2022-08-16T00:38:43.841Z,0.00
2022-08-16T00:39:39.582Z,0.00
2022-08-16T00:40:43.581Z,0.00
2022-08-16T00:41:40.546Z,0.00
2022-08-16T00:42:40.291Z,0.00
2022-08-16T00:43:42.480Z,0.00
2022-08-16T00:44:39.569Z,0.00
2022-08-16T00:45:58.516Z,0.00
2022-08-16T00:46:52.638Z,0.00
2022-08-16T00:47:42.647Z,0.00
2022-08-16T00:48:44.156Z,0.00
2022-08-16T00:49:44.548Z,0.00
2022-08-16T00:50:42.439Z,0.00
2022-08-16T00:51:39.433Z,0.00
2022-08-16T00:52:46.003Z,0.00
2022-08-16T00:53:40.385Z,0.00
2022-08-16T00:54:39.374Z,0.00
2022-08-16T00:55:39.345Z,0.00
2022-08-16T00:56:58.098Z,0.00
2022-08-16T00:57:58.560Z,0.00
2022-08-16T00:58:40.307Z,0.00
2022-08-16T00:59:54.735Z,0.00
2022-08-16T01:00:40.376Z,0.00
2022-08-16T01:01:39.265Z,0.00
2022-08-16T01:02:39.278Z,0.00
2022-08-16T01:03:41.699Z,0.00
2022-08-16T01:04:39.248Z,0.00
2022-08-16T01:05:39.210Z,0.00
2022-08-16T01:06:48.994Z,0.00
2022-08-16T01:07:51.311Z,0.00
2022-08-16T01:08:40.161Z,0.00
2022-08-16T01:09:42.850Z,0.00
2022-08-16T01:10:42.162Z,0.00
2022-08-16T01:11:55.050Z,0.00
2022-08-16T01:12:40.127Z,0.00
2022-08-16T01:13:39.119Z,0.00
2022-08-16T01:14:39.112Z,0.00
2022-08-16T01:15:43.124Z,0.00
2022-08-16T01:16:39.055Z,0.00
2022-08-16T01:17:39.054Z,0.00
2022-08-16T01:18:41.323Z,0.00
2022-08-16T01:19:40.797Z,0.00
2022-08-16T01:20:39.007Z,0.00
2022-08-16T01:21:39.703Z,0.00
2022-08-16T01:22:50.268Z,0.00
2022-08-16T01:23:58.628Z,0.00
2022-08-16T01:24:52.650Z,0.00
2022-08-16T01:25:39.947Z,0.00
2022-08-16T01:26:38.918Z,0.00
2022-08-16T01:27:38.951Z,0.00
2022-08-16T01:28:45.446Z,0.00
2022-08-16T01:29:57.703Z,0.00
2022-08-16T01:30:49.821Z,0.00
2022-08-16T01:31:42.809Z,0.00
2022-08-16T01:32:38.886Z,0.00
2022-08-16T01:33:38.821Z,0.00
2022-08-16T01:34:47.077Z,0.00
2022-08-16T01:35:39.793Z,0.00
2022-08-16T01:36:38.843Z,0.00
2022-08-16T01:37:38.775Z,0.00
2022-08-16T01:38:38.755Z,0.00
2022-08-16T01:39:38.811Z,0.00
2022-08-16T01:40:38.733Z,0.00
2022-08-16T01:41:42.183Z,0.00
2022-08-16T01:42:42.486Z,0.00
2022-08-16T01:43:38.696Z,0.00
2022-08-16T01:44:38.677Z,0.00
2022-08-16T01:45:39.511Z,0.00
2022-08-16T01:46:40.734Z,0.00
2022-08-16T01:47:38.637Z,0.00
2022-08-16T01:48:39.668Z,0.00
2022-08-16T01:49:45.521Z,0.00
2022-08-16T01:51:09.550Z,0.00
2022-08-16T01:51:39.579Z,0.00
2022-08-16T01:52:38.561Z,0.00
2022-08-16T01:53:40.663Z,0.00
2022-08-16T01:54:38.560Z,0.00
2022-08-16T01:55:38.571Z,0.00
2022-08-16T01:56:38.511Z,0.00
2022-08-16T01:57:38.505Z,0.00
2022-08-16T01:58:38.486Z,0.00
2022-08-16T01:59:39.472Z,0.00
2022-08-16T02:00:38.463Z,0.00
2022-08-16T02:01:38.533Z,0.00
2022-08-16T02:02:42.315Z,0.00
2022-08-16T02:03:39.964Z,0.00
2022-08-16T02:04:49.626Z,0.00
2022-08-16T02:05:39.393Z,0.00
2022-08-16T02:06:39.433Z,0.00
2022-08-16T02:07:38.374Z,0.00
2022-08-16T02:08:39.374Z,0.00
2022-08-16T02:09:41.375Z,0.00
2022-08-16T02:10:41.349Z,0.00
2022-08-16T02:11:47.839Z,0.00
2022-08-16T02:12:40.122Z,0.00
2022-08-16T02:13:41.807Z,0.00
2022-08-16T02:14:38.299Z,0.00
2022-08-16T02:15:42.640Z,0.00
2022-08-16T02:16:39.240Z,0.00
2022-08-16T02:17:38.231Z,0.00
2022-08-16T02:18:38.210Z,0.00
2022-08-16T02:19:58.881Z,0.00
2022-08-16T02:20:39.585Z,0.00
2022-08-16T02:21:38.172Z,0.00
2022-08-16T02:22:39.185Z,0.00
2022-08-16T02:23:38.142Z,0.00
2022-08-16T02:24:41.206Z,0.00
2022-08-16T02:25:52.485Z,0.00
2022-08-16T02:26:39.106Z,0.00
2022-08-16T02:27:38.094Z,0.00
2022-08-16T02:28:38.066Z,0.00
2022-08-16T02:29:42.107Z,0.00
2022-08-16T02:30:43.422Z,0.00
2022-08-16T02:32:03.347Z,0.00
2022-08-16T02:32:51.179Z,0.00
2022-08-16T02:33:44.015Z,0.00
2022-08-16T02:34:40.738Z,0.00
2022-08-16T02:35:53.765Z,0.00
2022-08-16T02:36:47.308Z,0.00
2022-08-16T02:37:51.638Z,0.00
2022-08-16T02:38:38.935Z,0.00
2022-08-16T02:39:37.945Z,0.00
2022-08-16T02:40:37.899Z,0.00
2022-08-16T02:41:39.640Z,0.00
2022-08-16T02:42:37.869Z,0.00
2022-08-16T02:43:37.862Z,0.00
2022-08-16T02:44:37.842Z,0.00
2022-08-16T02:45:37.845Z,0.00
2022-08-16T02:46:38.141Z,0.00
2022-08-16T02:48:01.007Z,0.00
2022-08-16T02:48:38.795Z,0.00
2022-08-16T02:50:01.448Z,0.00
2022-08-16T02:50:54.729Z,0.00
2022-08-16T02:51:38.788Z,0.00
2022-08-16T02:52:37.775Z,0.00
2022-08-16T02:53:37.740Z,0.00
2022-08-16T02:54:37.696Z,0.00
2022-08-16T02:55:40.998Z,0.00
2022-08-16T02:56:37.669Z,0.00
2022-08-16T02:57:37.670Z,0.00
2022-08-16T02:58:37.808Z,0.00
2022-08-16T02:59:39.575Z,0.00
2022-08-16T03:00:37.615Z,0.00
2022-08-16T03:01:37.702Z,0.00
2022-08-16T03:02:37.579Z,0.00
2022-08-16T03:04:28.718Z,0.00
2022-08-16T03:04:50.446Z,0.00
2022-08-16T03:05:38.542Z,0.00
2022-08-16T03:06:42.636Z,0.00
2022-08-16T03:07:38.514Z,0.00
2022-08-16T03:08:51.983Z,0.00
2022-08-16T03:09:41.535Z,0.00
2022-08-16T03:10:40.474Z,0.00
2022-08-16T03:11:37.478Z,0.00
2022-08-16T03:12:37.983Z,0.00
2022-08-16T03:13:40.184Z,0.00
2022-08-16T03:14:37.415Z,0.00
2022-08-16T03:15:37.446Z,0.00
2022-08-16T03:16:39.153Z,0.00
2022-08-16T03:17:53.284Z,0.00
2022-08-16T03:18:40.354Z,0.00
2022-08-16T03:19:52.771Z,0.00
2022-08-16T03:20:38.348Z,0.00
2022-08-16T03:21:37.961Z,0.00
2022-08-16T03:22:37.303Z,0.00
2022-08-16T03:23:37.318Z,0.00
2022-08-16T03:24:37.280Z,0.00
2022-08-16T03:25:44.029Z,0.00
2022-08-16T03:26:38.254Z,0.00
2022-08-16T03:27:37.231Z,0.00
2022-08-16T03:28:37.228Z,0.00
2022-08-16T03:29:42.696Z,0.00
2022-08-16T03:30:41.203Z,0.00
2022-08-16T03:31:40.569Z,0.00
2022-08-16T03:32:37.210Z,0.00
2022-08-16T03:33:37.142Z,0.00
2022-08-16T03:34:37.124Z,0.00
2022-08-16T03:35:37.115Z,0.00
2022-08-16T03:36:37.115Z,0.00
2022-08-16T03:38:01.584Z,0.00
2022-08-16T03:38:38.129Z,0.00
2022-08-16T03:39:42.853Z,0.00
2022-08-16T03:40:38.069Z,0.00
2022-08-16T03:41:50.464Z,0.00
2022-08-16T03:43:19.193Z,0.00
2022-08-16T03:43:51.526Z,0.00
2022-08-16T03:44:44.096Z,0.00
2022-08-16T03:45:37.991Z,0.00
2022-08-16T03:46:47.258Z,0.00
2022-08-16T03:47:37.950Z,0.00
2022-08-16T03:48:39.743Z,0.00
2022-08-16T03:49:39.990Z,0.00
2022-08-16T03:50:39.921Z,0.00
2022-08-16T03:51:36.912Z,0.00
2022-08-16T03:52:36.902Z,0.00
2022-08-16T03:53:38.452Z,0.00
2022-08-16T03:54:36.864Z,0.00
2022-08-16T03:55:45.468Z,0.00
2022-08-16T03:56:37.824Z,0.00
2022-08-16T03:57:36.815Z,0.00
2022-08-16T03:58:37.032Z,0.00
2022-08-16T03:59:36.784Z,0.00
2022-08-16T04:00:40.912Z,0.00
2022-08-16T04:01:36.850Z,0.00
2022-08-16T04:02:36.736Z,0.00
2022-08-16T04:03:36.727Z,0.00
2022-08-16T04:04:36.736Z,0.00
2022-08-16T04:05:36.697Z,0.00
2022-08-16T04:06:36.678Z,0.00
2022-08-16T04:07:36.669Z,0.00
2022-08-16T04:08:36.651Z,5.62
2022-08-16T04:09:39.671Z,5.62
2022-08-16T04:10:39.646Z,5.62
2022-08-16T04:11:36.898Z,5.62
2022-08-16T04:12:53.453Z,5.62
2022-08-16T04:14:00.408Z,5.62
2022-08-16T04:14:37.561Z,5.62
2022-08-16T04:15:37.616Z,5.62
2022-08-16T04:16:36.534Z,11.25
2022-08-16T04:17:36.522Z,11.25
2022-08-16T04:18:36.534Z,11.25
2022-08-16T04:19:36.520Z,11.25
2022-08-16T04:20:36.978Z,11.25
2022-08-16T04:21:46.027Z,16.88
2022-08-16T04:22:37.465Z,16.88
2022-08-16T04:23:36.435Z,16.88
2022-08-16T04:24:36.436Z,16.88
2022-08-16T04:25:36.444Z,16.88
2022-08-16T04:26:36.394Z,22.50
2022-08-16T04:27:36.378Z,22.50
2022-08-16T04:28:55.791Z,22.50
2022-08-16T04:29:44.204Z,28.12
2022-08-16T04:30:40.938Z,28.12
2022-08-16T04:31:36.326Z,28.12
2022-08-16T04:32:36.364Z,33.75
2022-08-16T04:33:36.298Z,33.75
2022-08-16T04:34:36.310Z,33.75
2022-08-16T04:35:36.321Z,39.38
2022-08-16T04:36:36.280Z,39.38
2022-08-16T04:37:42.410Z,39.38
2022-08-16T04:38:37.242Z,39.38
2022-08-16T04:39:44.960Z,39.38
2022-08-16T04:40:37.333Z,39.38
2022-08-16T04:41:37.456Z,39.38
2022-08-16T04:42:36.183Z,39.38
2022-08-16T04:43:36.172Z,45.00
2022-08-16T04:44:54.249Z,45.00
2022-08-16T04:45:37.152Z,45.00
2022-08-16T04:47:02.613Z,45.00
2022-08-16T04:47:37.125Z,50.62
2022-08-16T04:48:36.109Z,39.38
2022-08-16T04:49:44.115Z,39.38
2022-08-16T04:50:43.458Z,33.75
2022-08-16T04:51:36.317Z,33.75
2022-08-16T04:52:36.234Z,33.75
2022-08-16T04:53:36.058Z,33.75
2022-08-16T04:54:37.039Z,33.75
2022-08-16T04:55:37.694Z,39.38
2022-08-16T04:56:36.019Z,39.38
2022-08-16T04:57:37.106Z,39.38
2022-08-16T04:58:44.009Z,39.38
2022-08-16T04:59:36.991Z,39.38
2022-08-16T05:00:36.982Z,39.38
2022-08-16T05:01:58.004Z,39.38
2022-08-16T05:02:41.902Z,39.38
2022-08-16T05:03:42.067Z,39.38
2022-08-16T05:04:36.901Z,39.38
2022-08-16T05:05:36.814Z,39.38
2022-08-16T05:06:42.110Z,39.38
2022-08-16T05:07:36.853Z,39.38
2022-08-16T05:08:36.844Z,39.38
2022-08-16T05:09:38.866Z,39.38
2022-08-16T05:10:39.827Z,45.00
2022-08-16T05:11:35.795Z,45.00
2022-08-16T05:12:35.787Z,45.00
2022-08-16T05:13:40.880Z,45.00
2022-08-16T05:14:45.665Z,45.00
2022-08-16T05:15:36.785Z,45.00
2022-08-16T05:16:35.730Z,45.00
2022-08-16T05:17:35.744Z,45.00
2022-08-16T05:18:35.726Z,45.00
2022-08-16T05:19:35.997Z,50.62
2022-08-16T05:20:45.580Z,50.62
2022-08-16T05:21:38.474Z,50.62
2022-08-16T05:22:35.653Z,50.62
2022-08-16T05:23:35.621Z,50.62
2022-08-16T05:24:35.618Z,56.25
2022-08-16T05:25:41.353Z,56.25
2022-08-16T05:26:36.591Z,56.25
2022-08-16T05:27:42.750Z,56.25
2022-08-16T05:28:37.722Z,56.25
2022-08-16T05:29:57.400Z,56.25
2022-08-16T05:30:39.605Z,61.88
2022-08-16T05:31:35.527Z,61.88
2022-08-16T05:32:43.277Z,67.50
2022-08-16T05:33:36.485Z,67.50
2022-08-16T05:34:36.466Z,67.50
2022-08-16T05:35:35.455Z,67.50
2022-08-16T05:36:36.957Z,67.50
2022-08-16T05:37:39.556Z,67.50
2022-08-16T05:38:39.616Z,67.50
2022-08-16T05:39:37.655Z,67.50
2022-08-16T05:40:36.391Z,73.12
2022-08-16T05:41:44.626Z,73.12
2022-08-16T05:42:40.433Z,78.75
2022-08-16T05:43:42.972Z,78.75
2022-08-16T05:44:36.329Z,78.75
2022-08-16T05:45:36.496Z,84.38
2022-08-16T05:46:35.302Z,84.38
2022-08-16T05:47:43.301Z,84.38
2022-08-16T05:48:35.301Z,84.38
2022-08-16T05:49:39.683Z,84.38
2022-08-16T05:50:38.262Z,84.38
2022-08-16T05:51:38.955Z,84.38
2022-08-16T05:52:36.503Z,90.00
2022-08-16T05:53:38.674Z,90.00
2022-08-16T05:54:36.186Z,90.00
2022-08-16T05:55:35.337Z,90.00
2022-08-16T05:56:37.401Z,95.62
2022-08-16T05:57:35.702Z,95.62
2022-08-16T05:58:35.147Z,101.25
2022-08-16T05:59:35.127Z,101.25
2022-08-16T06:00:35.097Z,101.25
2022-08-16T06:01:38.147Z,106.88
2022-08-16T06:02:35.070Z,106.88
2022-08-16T06:03:35.060Z,112.50
2022-08-16T06:04:37.490Z,118.12
2022-08-16T06:05:41.406Z,123.75
2022-08-16T06:06:39.999Z,123.75
2022-08-16T06:07:39.312Z,123.75
2022-08-16T06:08:42.119Z,123.75
2022-08-16T06:09:44.614Z,123.75
2022-08-16T06:10:37.982Z,118.12
2022-08-16T06:11:36.662Z,118.12
2022-08-16T06:12:35.304Z,118.12
2022-08-16T06:13:34.924Z,112.50
2022-08-16T06:14:35.233Z,112.50
2022-08-16T06:15:41.606Z,112.50
2022-08-16T06:16:35.886Z,118.12
2022-08-16T06:17:42.508Z,118.12
2022-08-16T06:18:35.856Z,118.12
2022-08-16T06:19:35.727Z,123.75
2022-08-16T06:20:36.742Z,123.75
2022-08-16T06:21:36.956Z,135.00
2022-08-16T06:22:37.629Z,208.12
2022-08-16T06:23:34.808Z,146.25
2022-08-16T06:24:54.032Z,146.25
2022-08-16T06:25:39.655Z,146.25
2022-08-16T06:26:37.395Z,151.88
2022-08-16T06:27:39.566Z,157.50
2022-08-16T06:28:37.111Z,174.38
2022-08-16T06:29:37.699Z,196.88
2022-08-16T06:30:43.334Z,180.00
2022-08-16T06:31:38.484Z,180.00
2022-08-16T06:32:39.228Z,174.38
2022-08-16T06:33:41.869Z,168.75
2022-08-16T06:34:55.292Z,163.12
2022-08-16T06:35:40.323Z,157.50
2022-08-16T06:36:35.636Z,157.50
2022-08-16T06:37:37.394Z,157.50
2022-08-16T06:38:34.686Z,157.50
2022-08-16T06:39:34.648Z,163.12
2022-08-16T06:40:35.557Z,157.50
2022-08-16T06:41:39.741Z,157.50
2022-08-16T06:42:39.573Z,157.50
2022-08-16T06:43:35.499Z,157.50
2022-08-16T06:44:34.507Z,151.88
2022-08-16T06:45:34.477Z,151.88
2022-08-16T06:46:34.495Z,151.88
2022-08-16T06:47:53.810Z,151.88
2022-08-16T06:48:35.439Z,151.88
2022-08-16T06:49:38.439Z,151.88
2022-08-16T06:50:37.443Z,151.88
2022-08-16T06:51:46.468Z,157.50
2022-08-16T06:53:00.024Z,157.50
2022-08-16T06:53:35.747Z,157.50
2022-08-16T06:54:34.386Z,163.12
2022-08-16T06:55:34.822Z,168.75
2022-08-16T06:56:34.333Z,168.75
2022-08-16T06:57:34.351Z,180.00
2022-08-16T06:58:35.301Z,185.62
2022-08-16T06:59:52.735Z,196.88
2022-08-16T07:00:35.287Z,219.38
2022-08-16T07:01:44.944Z,213.75
2022-08-16T07:02:35.283Z,236.25
2022-08-16T07:03:55.792Z,230.62
2022-08-16T07:04:37.135Z,241.88
2022-08-16T07:05:41.446Z,247.50
2022-08-16T07:06:35.241Z,264.38
2022-08-16T07:07:36.228Z,303.75
2022-08-16T07:08:34.164Z,275.62
2022-08-16T07:09:37.165Z,270.00
2022-08-16T07:10:37.196Z,270.00
2022-08-16T07:11:48.313Z,281.25
2022-08-16T07:12:46.935Z,281.25
2022-08-16T07:14:35.432Z,247.50
2022-08-16T07:15:34.063Z,241.88
2022-08-16T07:16:34.051Z,241.88
2022-08-16T07:17:34.077Z,253.12
2022-08-16T07:18:34.030Z,230.62
2022-08-16T07:20:03.497Z,225.00
2022-08-16T07:20:47.874Z,213.75
2022-08-16T07:21:45.922Z,225.00
2022-08-16T07:22:37.226Z,213.75
2022-08-16T07:23:38.734Z,202.50
2022-08-16T07:24:34.956Z,202.50
2022-08-16T07:25:34.935Z,230.62
2022-08-16T07:26:34.917Z,236.25
2022-08-16T07:27:33.999Z,225.00
2022-08-16T07:28:33.899Z,219.38
2022-08-16T07:29:36.898Z,202.50
2022-08-16T07:30:45.139Z,202.50
2022-08-16T07:31:37.442Z,202.50
2022-08-16T07:32:33.860Z,196.88
2022-08-16T07:33:51.782Z,185.62
2022-08-16T07:34:37.544Z,174.38
2022-08-16T07:35:34.796Z,168.75
2022-08-16T07:36:33.781Z,168.75
2022-08-16T07:37:33.772Z,163.12
2022-08-16T07:38:34.350Z,168.75
2022-08-16T07:39:34.201Z,168.75
2022-08-16T07:40:59.667Z,174.38
2022-08-16T07:41:34.717Z,180.00
2022-08-16T07:42:35.135Z,185.62
2022-08-16T07:43:33.687Z,191.25
2022-08-16T07:44:50.393Z,196.88
2022-08-16T07:45:34.656Z,196.88
2022-08-16T07:46:39.232Z,202.50
2022-08-16T07:47:34.639Z,202.50
2022-08-16T07:48:33.617Z,202.50
2022-08-16T07:49:36.627Z,213.75
2022-08-16T07:50:56.999Z,213.75
2022-08-16T07:51:34.602Z,230.62
2022-08-16T07:52:33.568Z,230.62
2022-08-16T07:53:33.551Z,230.62
2022-08-16T07:54:39.234Z,236.25
2022-08-16T07:55:45.493Z,247.50
2022-08-16T07:56:37.137Z,241.88
2022-08-16T07:57:37.930Z,241.88
2022-08-16T07:58:36.198Z,258.75
2022-08-16T07:59:46.269Z,236.25
2022-08-16T08:00:34.506Z,230.62
2022-08-16T08:01:33.594Z,225.00
2022-08-16T08:02:33.424Z,219.38
2022-08-16T08:03:35.741Z,219.38
2022-08-16T08:04:34.396Z,213.75
2022-08-16T08:05:35.707Z,213.75
2022-08-16T08:06:33.378Z,213.75
2022-08-16T08:07:33.407Z,208.12
2022-08-16T08:08:51.590Z,208.12
2022-08-16T08:09:37.338Z,208.12
2022-08-16T08:10:37.352Z,208.12
2022-08-16T08:11:33.309Z,213.75
2022-08-16T08:12:36.245Z,213.75
2022-08-16T08:13:41.936Z,213.75
2022-08-16T08:14:34.330Z,213.75
2022-08-16T08:15:34.450Z,213.75
2022-08-16T08:16:33.356Z,219.38
2022-08-16T08:17:43.071Z,225.00
2022-08-16T08:18:34.243Z,225.00
2022-08-16T08:19:33.222Z,225.00
2022-08-16T08:20:33.842Z,219.38
2022-08-16T08:22:01.533Z,219.38
2022-08-16T08:22:34.154Z,219.38
2022-08-16T08:23:33.142Z,219.38
2022-08-16T08:24:33.157Z,225.00
2022-08-16T08:25:53.791Z,230.62
2022-08-16T08:26:34.107Z,225.00
2022-08-16T08:27:33.087Z,230.62
2022-08-16T08:28:33.067Z,236.25
2022-08-16T08:29:37.403Z,241.88
2022-08-16T08:30:50.512Z,253.12
2022-08-16T08:31:34.031Z,258.75
2022-08-16T08:32:51.111Z,264.38
2022-08-16T08:33:34.132Z,281.25
2022-08-16T08:34:32.990Z,275.62
2022-08-16T08:35:33.396Z,298.12
2022-08-16T08:36:34.185Z,275.62
2022-08-16T08:37:54.366Z,253.12
2022-08-16T08:38:45.321Z,247.50
2022-08-16T08:39:33.988Z,264.38
2022-08-16T08:40:32.990Z,241.88
2022-08-16T08:41:33.054Z,236.25
2022-08-16T08:42:32.910Z,208.12
2022-08-16T08:43:41.256Z,202.50
2022-08-16T08:44:33.877Z,202.50
2022-08-16T08:45:52.513Z,202.50
2022-08-16T08:46:35.676Z,213.75
2022-08-16T08:47:32.817Z,213.75
2022-08-16T08:48:35.701Z,253.12
2022-08-16T08:49:50.378Z,219.38
2022-08-16T08:50:36.790Z,230.62
2022-08-16T08:51:36.838Z,230.62
2022-08-16T08:52:34.775Z,230.62
2022-08-16T08:53:33.602Z,241.88
2022-08-16T08:54:32.751Z,236.25
2022-08-16T08:55:32.721Z,213.75
2022-08-16T08:56:35.004Z,225.00
2022-08-16T08:57:32.691Z,236.25
2022-08-16T08:58:34.080Z,230.62
2022-08-16T08:59:32.682Z,230.62
2022-08-16T09:00:32.640Z,225.00
2022-08-16T09:01:36.831Z,225.00
2022-08-16T09:02:33.615Z,219.38
2022-08-16T09:03:33.400Z,208.12
2022-08-16T09:04:32.650Z,208.12
2022-08-16T09:05:35.777Z,208.12
2022-08-16T09:06:32.573Z,219.38
2022-08-16T09:07:32.563Z,213.75
2022-08-16T09:08:35.195Z,225.00
2022-08-16T09:09:40.894Z,185.62
2022-08-16T09:10:39.499Z,191.25
2022-08-16T09:11:38.830Z,174.38
2022-08-16T09:12:36.028Z,208.12
2022-08-16T09:13:33.347Z,208.12
2022-08-16T09:14:32.488Z,213.75
2022-08-16T09:15:33.187Z,213.75
2022-08-16T09:17:01.403Z,213.75
2022-08-16T09:17:53.393Z,213.75
2022-08-16T09:18:35.362Z,213.75
2022-08-16T09:19:33.756Z,208.12
2022-08-16T09:20:32.365Z,213.75
2022-08-16T09:21:32.366Z,213.75
2022-08-16T09:22:32.345Z,213.75
2022-08-16T09:23:36.591Z,208.12
2022-08-16T09:24:51.487Z,208.12
2022-08-16T09:25:34.205Z,213.75
2022-08-16T09:26:45.237Z,213.75
2022-08-16T09:27:57.249Z,213.75
2022-08-16T09:29:13.541Z,213.75
2022-08-16T09:29:44.520Z,208.12
2022-08-16T09:30:44.121Z,208.12
2022-08-16T09:31:33.231Z,213.75
2022-08-16T09:32:33.211Z,219.38
2022-08-16T09:33:32.471Z,219.38
2022-08-16T09:34:33.204Z,219.38
2022-08-16T09:35:32.205Z,219.38
2022-08-16T09:36:33.312Z,219.38
2022-08-16T09:37:36.877Z,219.38
2022-08-16T09:38:32.982Z,225.00
2022-08-16T09:39:41.563Z,225.00
2022-08-16T09:40:43.764Z,225.00
2022-08-16T09:41:33.086Z,230.62
2022-08-16T09:42:32.084Z,225.00
2022-08-16T09:43:58.402Z,225.00
2022-08-16T09:45:12.828Z,225.00
2022-08-16T09:45:33.038Z,230.62
2022-08-16T09:46:45.173Z,236.25
2022-08-16T09:47:56.590Z,236.25
2022-08-16T09:48:44.057Z,236.25
2022-08-16T09:49:36.760Z,236.25
2022-08-16T09:50:38.243Z,241.88
2022-08-16T09:51:36.558Z,230.62
2022-08-16T09:52:33.104Z,236.25
2022-08-16T09:53:31.932Z,219.38
2022-08-16T09:54:32.357Z,247.50
2022-08-16T09:55:31.905Z,241.88
2022-08-16T09:56:31.979Z,213.75
2022-08-16T09:57:34.434Z,202.50
2022-08-16T09:58:41.439Z,208.12
2022-08-16T09:59:38.367Z,180.00
2022-08-16T10:00:45.423Z,180.00
2022-08-16T10:01:33.354Z,196.88
2022-08-16T10:02:31.806Z,247.50
2022-08-16T10:03:31.838Z,225.00
2022-08-16T10:04:38.899Z,219.38
2022-08-16T10:05:33.654Z,225.00
2022-08-16T10:06:33.374Z,219.38
2022-08-16T10:07:44.251Z,219.38
2022-08-16T10:08:32.730Z,225.00
2022-08-16T10:09:45.143Z,230.62
2022-08-16T10:10:35.723Z,225.00
2022-08-16T10:11:31.693Z,225.00
2022-08-16T10:12:32.673Z,219.38
2022-08-16T10:13:31.671Z,213.75
2022-08-16T10:14:33.340Z,213.75
2022-08-16T10:15:31.786Z,213.75
2022-08-16T10:16:31.615Z,213.75
2022-08-16T10:17:31.606Z,219.38
2022-08-16T10:18:56.424Z,225.00
2022-08-16T10:19:32.582Z,230.62
2022-08-16T10:20:31.599Z,241.88
2022-08-16T10:21:32.142Z,253.12
2022-08-16T10:22:31.560Z,258.75
2022-08-16T10:23:31.518Z,264.38
2022-08-16T10:24:31.511Z,270.00
2022-08-16T10:27:17.134Z,275.62
2022-08-16T10:27:18.693Z,270.00
2022-08-16T10:27:46.280Z,275.62
2022-08-16T10:28:39.946Z,281.25
2022-08-16T10:29:59.074Z,286.88
2022-08-16T10:30:39.050Z,292.50
2022-08-16T10:31:44.153Z,292.50
2022-08-16T10:32:32.490Z,292.50
2022-08-16T10:33:33.480Z,292.50
2022-08-16T10:34:32.747Z,292.50
2022-08-16T10:35:33.025Z,292.50
2022-08-16T10:36:39.252Z,292.50
2022-08-16T10:37:36.233Z,286.88
2022-08-16T10:38:33.111Z,286.88
2022-08-16T10:39:32.860Z,298.12
2022-08-16T10:40:32.335Z,292.50
2022-08-16T10:41:31.280Z,292.50
2022-08-16T10:42:31.409Z,286.88
2022-08-16T10:43:31.469Z,298.12
2022-08-16T10:44:31.240Z,286.88
2022-08-16T10:45:36.758Z,275.62
2022-08-16T10:46:39.860Z,275.62
2022-08-16T10:47:38.188Z,270.00
2022-08-16T10:48:32.211Z,258.75
2022-08-16T10:49:34.181Z,292.50
2022-08-16T10:50:34.176Z,264.38
2022-08-16T10:51:34.327Z,247.50
2022-08-16T10:53:33.244Z,236.25
2022-08-16T10:54:31.201Z,241.88
2022-08-16T10:55:40.701Z,241.88
2022-08-16T10:56:55.964Z,225.00
2022-08-16T10:57:32.903Z,236.25
2022-08-16T10:58:34.297Z,230.62
2022-08-16T10:59:32.570Z,236.25
2022-08-16T11:00:32.020Z,241.88
2022-08-16T11:01:40.181Z,236.25
2022-08-16T11:02:59.116Z,241.88
2022-08-16T11:03:42.127Z,241.88
2022-08-16T11:06:32.038Z,236.25
2022-08-16T11:07:52.459Z,258.75
2022-08-16T11:08:36.484Z,253.12
2022-08-16T11:09:43.981Z,247.50
2022-08-16T11:11:31.905Z,241.88
2022-08-16T11:12:30.873Z,225.00
2022-08-16T11:14:32.016Z,213.75
2022-08-16T11:15:30.836Z,236.25
2022-08-16T11:17:32.736Z,219.38
2022-08-16T11:19:03.815Z,230.62
2022-08-16T11:19:31.811Z,202.50
2022-08-16T11:20:41.107Z,196.88
2022-08-16T11:21:31.865Z,185.62
2022-08-16T11:22:42.083Z,191.25
2022-08-16T11:23:31.784Z,168.75
2022-08-16T11:24:40.238Z,174.38
2022-08-16T11:26:31.686Z,163.12
2022-08-16T11:27:35.621Z,208.12
2022-08-16T11:29:34.876Z,163.12
2022-08-16T11:30:38.669Z,191.25
2022-08-16T11:31:32.813Z,202.50
2022-08-16T11:32:32.479Z,213.75
2022-08-16T11:34:56.656Z,213.75
2022-08-16T11:36:31.598Z,213.75
2022-08-16T11:37:34.267Z,213.75
2022-08-16T11:38:51.225Z,213.75
2022-08-16T11:39:31.869Z,208.12
2022-08-16T11:40:32.670Z,208.12
2022-08-16T11:41:31.012Z,208.12
2022-08-16T11:42:34.404Z,208.12
2022-08-16T11:43:31.484Z,208.12
2022-08-16T11:44:45.291Z,202.50
2022-08-16T11:45:33.653Z,208.12
2022-08-16T11:46:45.100Z,208.12
2022-08-16T11:47:31.558Z,208.12
2022-08-16T11:48:30.545Z,202.50
2022-08-16T11:49:33.398Z,208.12
2022-08-16T11:50:33.676Z,202.50
2022-08-16T11:51:30.400Z,191.25
2022-08-16T11:52:30.352Z,185.62
2022-08-16T11:53:30.362Z,168.75
2022-08-16T11:54:36.109Z,208.12
2022-08-16T11:55:31.324Z,174.38
2022-08-16T11:56:51.443Z,163.12
2022-08-16T11:57:31.323Z,163.12
2022-08-16T11:58:30.338Z,213.75
2022-08-16T11:59:30.303Z,213.75
2022-08-16T12:00:33.882Z,213.75
2022-08-16T12:01:44.120Z,219.38
2022-08-16T12:02:33.003Z,151.88
2022-08-16T12:03:35.361Z,180.00
2022-08-16T12:04:31.540Z,219.38
2022-08-16T12:05:30.198Z,213.75
2022-08-16T12:06:30.929Z,219.38
2022-08-16T12:07:33.203Z,225.00
2022-08-16T12:08:30.160Z,225.00
2022-08-16T12:09:33.777Z,208.12
2022-08-16T12:10:34.150Z,180.00
2022-08-16T12:11:31.531Z,135.00
2022-08-16T12:12:30.101Z,140.62
2022-08-16T12:13:30.082Z,146.25
2022-08-16T12:14:30.074Z,157.50
2022-08-16T12:15:31.179Z,151.88
2022-08-16T12:16:31.004Z,196.88
2022-08-16T12:17:31.381Z,230.62
2022-08-16T12:18:30.075Z,225.00
2022-08-16T12:19:34.027Z,230.62
2022-08-16T12:20:30.993Z,230.62
2022-08-16T12:21:57.738Z,230.62
2022-08-16T12:22:31.297Z,140.62
2022-08-16T12:23:31.673Z,135.00
2022-08-16T12:24:29.976Z,135.00
2022-08-16T12:25:29.939Z,140.62
2022-08-16T12:26:29.913Z,140.62
2022-08-16T12:27:29.902Z,225.00
2022-08-16T12:28:52.184Z,219.38
2022-08-16T12:29:34.121Z,168.75
2022-08-16T12:30:37.768Z,129.38
2022-08-16T12:31:30.843Z,123.75
2022-08-16T12:32:39.203Z,180.00
2022-08-16T12:33:30.825Z,219.38
2022-08-16T12:34:29.814Z,219.38
2022-08-16T12:35:30.059Z,225.00
2022-08-16T12:36:30.259Z,230.62
2022-08-16T12:37:29.775Z,225.00
2022-08-16T12:38:41.031Z,225.00
2022-08-16T12:39:30.813Z,196.88
2022-08-16T12:40:30.060Z,135.00
2022-08-16T12:41:29.740Z,135.00
2022-08-16T12:42:35.431Z,213.75
2022-08-16T12:43:31.316Z,225.00
2022-08-16T12:44:31.433Z,230.62
2022-08-16T12:45:29.661Z,146.25
2022-08-16T12:46:30.897Z,168.75
2022-08-16T12:47:29.632Z,225.00
2022-08-16T12:48:34.137Z,230.62
2022-08-16T12:49:33.604Z,230.62
2022-08-16T12:50:33.603Z,219.38
2022-08-16T12:51:30.607Z,225.00
2022-08-16T12:52:33.682Z,208.12
2022-08-16T12:53:31.884Z,140.62
2022-08-16T12:54:29.526Z,140.62
2022-08-16T12:55:33.494Z,208.12
2022-08-16T12:56:29.497Z,225.00
2022-08-16T12:57:36.395Z,230.62
2022-08-16T12:58:49.637Z,241.88